Weather at Athen Helenikon Airport [CLOSED]

Public forecast

Using degrees Celsius for public forecast. Weather courtesy of forecast.io.

Closest aviation weather report (METAR) to Athen Helenikon Airport

Closest report is Eleftherios Venizelos International Airport, 10.5 nm (19.4 km) ENE. Retrieved 2021/03/06 12:20 UTC (16 minutes ago):

LGAV 061220Z 07007KT 9999 SCT025 17/06 Q1019 NOSIG

Closest aviation forecast (TAF) to Athen Helenikon Airport

Forecast is more than 6 hours old.

Closest forecast is Eleftherios Venizelos International Airport, 10.5 nm (19.4 km) ENE. Retrieved 2021/03/06 06:12 UTC (6 hours ago):

TAF TAF LGAV 060500Z 0606/0706 VRB05KT 9999 FEW020 SCT070 BECMG 0606/0608 26010KT BECMG 0616/0618 03010KT BECMG 0622/0624 03020KT PROB30 TEMPO 0702/0706 5000 RA SCT015 BKN030